sensor_id;sensor_type;location;lat;lon;timestamp;temperature;humidity
67131;HTU21D;54051;53.464;49.532;2023-07-22T00:02:25;18.07;75.67
67131;HTU21D;54051;53.464;49.532;2023-07-22T00:04:51;18.00;75.46
67131;HTU21D;54051;53.464;49.532;2023-07-22T00:07:18;17.99;75.11
67131;HTU21D;54051;53.464;49.532;2023-07-22T00:09:44;18.02;75.96
67131;HTU21D;54051;53.464;49.532;2023-07-22T00:12:10;18.03;75.27
67131;HTU21D;54051;53.464;49.532;2023-07-22T00:14:39;17.98;74.79
67131;HTU21D;54051;53.464;49.532;2023-07-22T00:17:06;17.98;75.14
67131;HTU21D;54051;53.464;49.532;2023-07-22T00:19:32;17.90;74.43
67131;HTU21D;54051;53.464;49.532;2023-07-22T00:21:58;17.79;74.83
67131;HTU21D;54051;53.464;49.532;2023-07-22T00:24:24;17.75;75.21
67131;HTU21D;54051;53.464;49.532;2023-07-22T00:26:50;17.75;75.63
67131;HTU21D;54051;53.464;49.532;2023-07-22T00:29:16;17.74;75.21
67131;HTU21D;54051;53.464;49.532;2023-07-22T00:31:43;17.69;75.26
67131;HTU21D;54051;53.464;49.532;2023-07-22T00:34:09;17.68;75.89
67131;HTU21D;54051;53.464;49.532;2023-07-22T00:36:36;17.69;75.90
67131;HTU21D;54051;53.464;49.532;2023-07-22T00:39:03;17.74;75.68
67131;HTU21D;54051;53.464;49.532;2023-07-22T00:41:31;17.79;75.46
67131;HTU21D;54051;53.464;49.532;2023-07-22T00:43:57;17.80;75.19
67131;HTU21D;54051;53.464;49.532;2023-07-22T00:46:23;17.76;74.86
67131;HTU21D;54051;53.464;49.532;2023-07-22T00:48:50;17.75;74.78
67131;HTU21D;54051;53.464;49.532;2023-07-22T00:51:17;17.68;74.81
67131;HTU21D;54051;53.464;49.532;2023-07-22T00:53:43;17.66;74.89
67131;HTU21D;54051;53.464;49.532;2023-07-22T00:56:09;17.63;75.32
67131;HTU21D;54051;53.464;49.532;2023-07-22T00:58:35;17.61;75.42
67131;HTU21D;54051;53.464;49.532;2023-07-22T01:01:01;17.65;75.37
67131;HTU21D;54051;53.464;49.532;2023-07-22T01:03:28;17.64;75.16
67131;HTU21D;54051;53.464;49.532;2023-07-22T01:05:54;17.63;74.99
67131;HTU21D;54051;53.464;49.532;2023-07-22T01:08:20;17.70;74.78
67131;HTU21D;54051;53.464;49.532;2023-07-22T01:10:46;17.73;75.06
67131;HTU21D;54051;53.464;49.532;2023-07-22T01:13:13;17.84;74.84
67131;HTU21D;54051;53.464;49.532;2023-07-22T01:15:40;17.89;74.79
67131;HTU21D;54051;53.464;49.532;2023-07-22T01:18:06;17.91;75.09
67131;HTU21D;54051;53.464;49.532;2023-07-22T01:20:33;17.93;75.93
67131;HTU21D;54051;53.464;49.532;2023-07-22T01:23:00;18.04;75.86
67131;HTU21D;54051;53.464;49.532;2023-07-22T01:25:28;18.14;75.42
67131;HTU21D;54051;53.464;49.532;2023-07-22T01:27:54;18.21;76.52
67131;HTU21D;54051;53.464;49.532;2023-07-22T01:30:19;18.23;75.88
67131;HTU21D;54051;53.464;49.532;2023-07-22T01:32:49;18.35;75.11
67131;HTU21D;54051;53.464;49.532;2023-07-22T01:35:16;18.36;74.51
67131;HTU21D;54051;53.464;49.532;2023-07-22T01:37:42;18.43;73.76
67131;HTU21D;54051;53.464;49.532;2023-07-22T01:40:09;18.42;73.81
67131;HTU21D;54051;53.464;49.532;2023-07-22T01:42:41;18.43;73.69
67131;HTU21D;54051;53.464;49.532;2023-07-22T01:45:08;18.49;73.55
67131;HTU21D;54051;53.464;49.532;2023-07-22T01:47:38;18.68;73.88
67131;HTU21D;54051;53.464;49.532;2023-07-22T01:50:06;18.86;73.38
67131;HTU21D;54051;53.464;49.532;2023-07-22T01:52:32;18.91;73.31
67131;HTU21D;54051;53.464;49.532;2023-07-22T01:55:01;19.03;72.80
67131;HTU21D;54051;53.464;49.532;2023-07-22T01:57:34;19.05;72.19
67131;HTU21D;54051;53.464;49.532;2023-07-22T02:00:00;19.15;71.94
67131;HTU21D;54051;53.464;49.532;2023-07-22T02:02:26;19.29;71.55
67131;HTU21D;54051;53.464;49.532;2023-07-22T02:04:52;19.38;71.40
67131;HTU21D;54051;53.464;49.532;2023-07-22T02:07:18;19.39;71.93
67131;HTU21D;54051;53.464;49.532;2023-07-22T02:09:44;19.39;71.55
67131;HTU21D;54051;53.464;49.532;2023-07-22T02:12:11;19.68;70.49
67131;HTU21D;54051;53.464;49.532;2023-07-22T02:14:37;20.39;67.78
67131;HTU21D;54051;53.464;49.532;2023-07-22T02:17:03;22.10;62.31
67131;HTU21D;54051;53.464;49.532;2023-07-22T02:19:29;24.26;54.71
67131;HTU21D;54051;53.464;49.532;2023-07-22T02:21:56;25.78;49.89
67131;HTU21D;54051;53.464;49.532;2023-07-22T02:24:22;26.26;48.39
67131;HTU21D;54051;53.464;49.532;2023-07-22T02:26:48;25.19;50.83
67131;HTU21D;54051;53.464;49.532;2023-07-22T02:29:15;24.80;52.33
67131;HTU21D;54051;53.464;49.532;2023-07-22T02:31:41;26.90;46.19
67131;HTU21D;54051;53.464;49.532;2023-07-22T02:34:07;28.34;42.17
67131;HTU21D;54051;53.464;49.532;2023-07-22T02:36:33;29.48;39.13
67131;HTU21D;54051;53.464;49.532;2023-07-22T02:39:00;30.32;37.61
67131;HTU21D;54051;53.464;49.532;2023-07-22T02:41:25;30.53;37.01
67131;HTU21D;54051;53.464;49.532;2023-07-22T02:43:51;31.14;35.27
67131;HTU21D;54051;53.464;49.532;2023-07-22T02:46:18;31.34;34.38
67131;HTU21D;54051;53.464;49.532;2023-07-22T02:48:44;29.86;38.14
67131;HTU21D;54051;53.464;49.532;2023-07-22T02:51:10;28.92;39.88
67131;HTU21D;54051;53.464;49.532;2023-07-22T02:53:36;28.21;41.45
67131;HTU21D;54051;53.464;49.532;2023-07-22T02:56:04;28.43;40.88
67131;HTU21D;54051;53.464;49.532;2023-07-22T02:58:31;30.04;37.21
67131;HTU21D;54051;53.464;49.532;2023-07-22T03:00:57;31.33;34.99
67131;HTU21D;54051;53.464;49.532;2023-07-22T03:03:26;32.54;32.60
67131;HTU21D;54051;53.464;49.532;2023-07-22T03:05:52;33.50;30.13
67131;HTU21D;54051;53.464;49.532;2023-07-22T03:08:18;34.52;29.06
67131;HTU21D;54051;53.464;49.532;2023-07-22T03:10:44;33.85;29.50
67131;HTU21D;54051;53.464;49.532;2023-07-22T03:13:15;33.75;30.35
67131;HTU21D;54051;53.464;49.532;2023-07-22T03:15:41;33.16;30.93
67131;HTU21D;54051;53.464;49.532;2023-07-22T03:18:07;33.15;31.88
67131;HTU21D;54051;53.464;49.532;2023-07-22T03:20:36;33.81;30.80
67131;HTU21D;54051;53.464;49.532;2023-07-22T03:23:03;34.60;28.48
67131;HTU21D;54051;53.464;49.532;2023-07-22T03:25:29;33.56;30.64
67131;HTU21D;54051;53.464;49.532;2023-07-22T03:27:55;34.07;29.65
67131;HTU21D;54051;53.464;49.532;2023-07-22T03:30:23;33.47;30.54
67131;HTU21D;54051;53.464;49.532;2023-07-22T03:32:49;33.15;31.61
67131;HTU21D;54051;53.464;49.532;2023-07-22T03:35:18;32.67;32.21
67131;HTU21D;54051;53.464;49.532;2023-07-22T03:37:44;31.84;33.73
67131;HTU21D;54051;53.464;49.532;2023-07-22T03:40:10;31.90;34.05
67131;HTU21D;54051;53.464;49.532;2023-07-22T03:42:50;31.72;33.86
67131;HTU21D;54051;53.464;49.532;2023-07-22T03:45:17;31.72;33.99
67131;HTU21D;54051;53.464;49.532;2023-07-22T03:47:52;31.74;33.78
67131;HTU21D;54051;53.464;49.532;2023-07-22T03:50:20;32.05;33.28
67131;HTU21D;54051;53.464;49.532;2023-07-22T03:52:46;32.16;32.91
67131;HTU21D;54051;53.464;49.532;2023-07-22T03:55:11;32.25;32.77
67131;HTU21D;54051;53.464;49.532;2023-07-22T03:57:37;32.45;32.19
67131;HTU21D;54051;53.464;49.532;2023-07-22T04:00:04;33.25;30.76
67131;HTU21D;54051;53.464;49.532;2023-07-22T04:02:31;33.97;29.06
67131;HTU21D;54051;53.464;49.532;2023-07-22T04:04:57;34.80;27.69
67131;HTU21D;54051;53.464;49.532;2023-07-22T04:07:25;35.19;27.49
67131;HTU21D;54051;53.464;49.532;2023-07-22T04:09:51;35.44;26.37
67131;HTU21D;54051;53.464;49.532;2023-07-22T04:12:16;35.23;27.21
67131;HTU21D;54051;53.464;49.532;2023-07-22T04:14:43;35.69;26.34
67131;HTU21D;54051;53.464;49.532;2023-07-22T04:17:09;35.39;26.61
67131;HTU21D;54051;53.464;49.532;2023-07-22T04:19:35;35.74;26.13
67131;HTU21D;54051;53.464;49.532;2023-07-22T04:22:02;35.92;26.16
67131;HTU21D;54051;53.464;49.532;2023-07-22T04:24:33;36.81;24.35
67131;HTU21D;54051;53.464;49.532;2023-07-22T04:27:00;36.75;25.04
67131;HTU21D;54051;53.464;49.532;2023-07-22T04:29:26;37.45;23.66
67131;HTU21D;54051;53.464;49.532;2023-07-22T04:32:00;37.73;22.78
67131;HTU21D;54051;53.464;49.532;2023-07-22T04:34:30;37.64;23.33
67131;HTU21D;54051;53.464;49.532;2023-07-22T04:36:57;37.10;24.22
67131;HTU21D;54051;53.464;49.532;2023-07-22T04:39:26;37.34;23.71
67131;HTU21D;54051;53.464;49.532;2023-07-22T04:41:52;37.82;22.58
67131;HTU21D;54051;53.464;49.532;2023-07-22T04:44:19;37.00;23.90
67131;HTU21D;54051;53.464;49.532;2023-07-22T04:46:45;37.59;23.20
67131;HTU21D;54051;53.464;49.532;2023-07-22T04:49:11;37.23;23.60
67131;HTU21D;54051;53.464;49.532;2023-07-22T04:51:37;37.18;23.70
67131;HTU21D;54051;53.464;49.532;2023-07-22T04:54:03;37.11;24.09
67131;HTU21D;54051;53.464;49.532;2023-07-22T04:56:30;37.36;23.96
67131;HTU21D;54051;53.464;49.532;2023-07-22T04:58:56;37.34;23.64
67131;HTU21D;54051;53.464;49.532;2023-07-22T05:01:22;38.25;22.73
67131;HTU21D;54051;53.464;49.532;2023-07-22T05:03:48;39.58;21.25
67131;HTU21D;54051;53.464;49.532;2023-07-22T05:06:14;40.30;19.98
67131;HTU21D;54051;53.464;49.532;2023-07-22T05:08:45;40.10;19.92
67131;HTU21D;54051;53.464;49.532;2023-07-22T05:11:11;39.89;20.60
67131;HTU21D;54051;53.464;49.532;2023-07-22T05:13:37;40.73;18.96
67131;HTU21D;54051;53.464;49.532;2023-07-22T05:16:03;40.68;19.25
67131;HTU21D;54051;53.464;49.532;2023-07-22T05:18:29;39.99;19.70
67131;HTU21D;54051;53.464;49.532;2023-07-22T05:20:55;40.29;19.64
67131;HTU21D;54051;53.464;49.532;2023-07-22T05:23:21;40.42;19.73
67131;HTU21D;54051;53.464;49.532;2023-07-22T05:25:53;40.53;19.14
67131;HTU21D;54051;53.464;49.532;2023-07-22T05:28:19;40.66;18.92
67131;HTU21D;54051;53.464;49.532;2023-07-22T05:30:46;41.44;18.31
67131;HTU21D;54051;53.464;49.532;2023-07-22T05:33:12;41.86;18.19
67131;HTU21D;54051;53.464;49.532;2023-07-22T05:35:38;42.06;17.67
67131;HTU21D;54051;53.464;49.532;2023-07-22T05:38:04;43.02;16.51
67131;HTU21D;54051;53.464;49.532;2023-07-22T05:40:30;42.93;16.22
67131;HTU21D;54051;53.464;49.532;2023-07-22T05:42:56;42.45;17.65
67131;HTU21D;54051;53.464;49.532;2023-07-22T05:45:22;42.32;17.40
67131;HTU21D;54051;53.464;49.532;2023-07-22T05:47:48;41.94;17.83
67131;HTU21D;54051;53.464;49.532;2023-07-22T05:50:14;41.94;17.28
67131;HTU21D;54051;53.464;49.532;2023-07-22T05:52:40;41.49;18.19
67131;HTU21D;54051;53.464;49.532;2023-07-22T05:55:08;41.43;18.03
67131;HTU21D;54051;53.464;49.532;2023-07-22T05:57:34;42.41;16.83
67131;HTU21D;54051;53.464;49.532;2023-07-22T06:00:00;42.45;16.91
67131;HTU21D;54051;53.464;49.532;2023-07-22T06:02:27;41.85;17.06
67131;HTU21D;54051;53.464;49.532;2023-07-22T06:04:53;41.46;17.49
67131;HTU21D;54051;53.464;49.532;2023-07-22T06:07:19;41.75;17.41
67131;HTU21D;54051;53.464;49.532;2023-07-22T06:09:45;42.26;16.73
67131;HTU21D;54051;53.464;49.532;2023-07-22T06:12:11;42.63;16.37
67131;HTU21D;54051;53.464;49.532;2023-07-22T06:14:37;42.16;16.83
67131;HTU21D;54051;53.464;49.532;2023-07-22T06:17:03;41.71;17.11
67131;HTU21D;54051;53.464;49.532;2023-07-22T06:19:29;40.72;18.57
67131;HTU21D;54051;53.464;49.532;2023-07-22T06:21:55;40.73;18.70
67131;HTU21D;54051;53.464;49.532;2023-07-22T06:24:21;40.15;19.91
67131;HTU21D;54051;53.464;49.532;2023-07-22T06:26:47;40.70;19.19
67131;HTU21D;54051;53.464;49.532;2023-07-22T06:29:13;40.40;18.87
67131;HTU21D;54051;53.464;49.532;2023-07-22T06:31:39;40.28;19.89
67131;HTU21D;54051;53.464;49.532;2023-07-22T06:34:06;41.19;18.60
67131;HTU21D;54051;53.464;49.532;2023-07-22T06:36:32;40.82;18.89
67131;HTU21D;54051;53.464;49.532;2023-07-22T06:38:58;40.30;19.70
67131;HTU21D;54051;53.464;49.532;2023-07-22T06:41:24;40.31;20.50
67131;HTU21D;54051;53.464;49.532;2023-07-22T06:43:50;41.09;19.44
67131;HTU21D;54051;53.464;49.532;2023-07-22T06:46:16;41.17;18.52
67131;HTU21D;54051;53.464;49.532;2023-07-22T06:48:42;41.36;18.60
67131;HTU21D;54051;53.464;49.532;2023-07-22T06:51:08;41.69;18.21
67131;HTU21D;54051;53.464;49.532;2023-07-22T06:53:34;42.29;17.22
67131;HTU21D;54051;53.464;49.532;2023-07-22T06:56:00;41.45;18.67
67131;HTU21D;54051;53.464;49.532;2023-07-22T06:58:26;40.77;19.57
67131;HTU21D;54051;53.464;49.532;2023-07-22T07:00:53;40.11;20.46
67131;HTU21D;54051;53.464;49.532;2023-07-22T07:03:22;40.38;19.86
67131;HTU21D;54051;53.464;49.532;2023-07-22T07:06:06;40.18;20.18
67131;HTU21D;54051;53.464;49.532;2023-07-22T07:08:32;40.59;19.68
67131;HTU21D;54051;53.464;49.532;2023-07-22T07:10:59;40.86;18.59
67131;HTU21D;54051;53.464;49.532;2023-07-22T07:13:26;39.81;20.34
67131;HTU21D;54051;53.464;49.532;2023-07-22T07:15:52;39.98;20.08
67131;HTU21D;54051;53.464;49.532;2023-07-22T07:18:19;39.56;20.71
67131;HTU21D;54051;53.464;49.532;2023-07-22T07:20:44;39.54;21.32
67131;HTU21D;54051;53.464;49.532;2023-07-22T07:23:12;39.43;20.27
67131;HTU21D;54051;53.464;49.532;2023-07-22T07:25:39;39.32;19.87
67131;HTU21D;54051;53.464;49.532;2023-07-22T07:28:05;38.75;20.23
67131;HTU21D;54051;53.464;49.532;2023-07-22T07:30:31;38.09;21.05
67131;HTU21D;54051;53.464;49.532;2023-07-22T07:32:58;37.82;21.86
67131;HTU21D;54051;53.464;49.532;2023-07-22T07:35:24;37.63;21.21
67131;HTU21D;54051;53.464;49.532;2023-07-22T07:37:50;37.58;21.73
67131;HTU21D;54051;53.464;49.532;2023-07-22T07:40:16;36.02;24.18
67131;HTU21D;54051;53.464;49.532;2023-07-22T07:42:42;35.05;26.11
67131;HTU21D;54051;53.464;49.532;2023-07-22T07:45:08;35.21;27.03
67131;HTU21D;54051;53.464;49.532;2023-07-22T07:47:34;36.23;24.38
67131;HTU21D;54051;53.464;49.532;2023-07-22T07:50:01;35.56;25.76
67131;HTU21D;54051;53.464;49.532;2023-07-22T07:52:28;34.67;26.77
67131;HTU21D;54051;53.464;49.532;2023-07-22T07:54:55;34.30;28.05
67131;HTU21D;54051;53.464;49.532;2023-07-22T07:57:21;34.71;27.69
67131;HTU21D;54051;53.464;49.532;2023-07-22T07:59:46;34.01;28.81
67131;HTU21D;54051;53.464;49.532;2023-07-22T08:02:13;34.98;26.73
67131;HTU21D;54051;53.464;49.532;2023-07-22T08:04:39;33.31;30.02
67131;HTU21D;54051;53.464;49.532;2023-07-22T08:07:06;34.83;26.55
67131;HTU21D;54051;53.464;49.532;2023-07-22T08:09:32;34.34;27.36
67131;HTU21D;54051;53.464;49.532;2023-07-22T08:11:58;33.22;29.90
67131;HTU21D;54051;53.464;49.532;2023-07-22T08:14:24;31.21;33.95
67131;HTU21D;54051;53.464;49.532;2023-07-22T08:16:50;30.06;36.53
67131;HTU21D;54051;53.464;49.532;2023-07-22T08:19:16;29.72;37.56
67131;HTU21D;54051;53.464;49.532;2023-07-22T08:21:42;29.59;37.01
67131;HTU21D;54051;53.464;49.532;2023-07-22T08:24:08;29.04;38.78
67131;HTU21D;54051;53.464;49.532;2023-07-22T08:26:34;28.58;38.65
67131;HTU21D;54051;53.464;49.532;2023-07-22T08:29:00;28.12;40.52
67131;HTU21D;54051;53.464;49.532;2023-07-22T08:31:26;27.91;40.35
67131;HTU21D;54051;53.464;49.532;2023-07-22T08:33:52;27.83;40.98
67131;HTU21D;54051;53.464;49.532;2023-07-22T08:36:18;27.49;42.51
67131;HTU21D;54051;53.464;49.532;2023-07-22T08:38:44;27.35;41.97
67131;HTU21D;54051;53.464;49.532;2023-07-22T08:41:14;26.73;43.36
67131;HTU21D;54051;53.464;49.532;2023-07-22T08:43:42;26.60;43.84
67131;HTU21D;54051;53.464;49.532;2023-07-22T08:46:12;26.79;42.85
67131;HTU21D;54051;53.464;49.532;2023-07-22T08:48:41;26.82;44.13
67131;HTU21D;54051;53.464;49.532;2023-07-22T08:51:17;26.34;44.22
67131;HTU21D;54051;53.464;49.532;2023-07-22T08:53:45;26.52;43.26
67131;HTU21D;54051;53.464;49.532;2023-07-22T08:56:11;26.53;43.73
67131;HTU21D;54051;53.464;49.532;2023-07-22T08:58:38;26.62;44.25
67131;HTU21D;54051;53.464;49.532;2023-07-22T09:01:06;26.70;43.51
67131;HTU21D;54051;53.464;49.532;2023-07-22T09:03:33;26.67;43.10
67131;HTU21D;54051;53.464;49.532;2023-07-22T09:05:59;26.79;42.81
67131;HTU21D;54051;53.464;49.532;2023-07-22T09:08:26;26.63;44.25
67131;HTU21D;54051;53.464;49.532;2023-07-22T09:10:53;26.41;45.01
67131;HTU21D;54051;53.464;49.532;2023-07-22T09:13:19;26.36;45.49
67131;HTU21D;54051;53.464;49.532;2023-07-22T09:15:46;26.64;45.64
67131;HTU21D;54051;53.464;49.532;2023-07-22T09:18:15;26.52;45.28
67131;HTU21D;54051;53.464;49.532;2023-07-22T09:20:42;26.32;45.55
67131;HTU21D;54051;53.464;49.532;2023-07-22T09:23:08;26.38;44.78
67131;HTU21D;54051;53.464;49.532;2023-07-22T09:25:34;27.04;40.60
67131;HTU21D;54051;53.464;49.532;2023-07-22T09:28:00;27.54;36.59
67131;HTU21D;54051;53.464;49.532;2023-07-22T09:30:27;27.61;34.44
67131;HTU21D;54051;53.464;49.532;2023-07-22T09:32:56;27.47;40.09
67131;HTU21D;54051;53.464;49.532;2023-07-22T09:35:30;26.73;41.65
67131;HTU21D;54051;53.464;49.532;2023-07-22T09:37:56;26.42;43.16
67131;HTU21D;54051;53.464;49.532;2023-07-22T09:40:25;26.51;44.67
67131;HTU21D;54051;53.464;49.532;2023-07-22T09:42:56;26.79;43.33
67131;HTU21D;54051;53.464;49.532;2023-07-22T09:45:24;27.24;36.30
67131;HTU21D;54051;53.464;49.532;2023-07-22T09:47:51;27.50;37.62
67131;HTU21D;54051;53.464;49.532;2023-07-22T09:50:23;27.34;39.27
67131;HTU21D;54051;53.464;49.532;2023-07-22T09:52:53;27.39;36.97
67131;HTU21D;54051;53.464;49.532;2023-07-22T09:55:25;27.84;36.28
67131;HTU21D;54051;53.464;49.532;2023-07-22T09:57:53;27.95;36.56
67131;HTU21D;54051;53.464;49.532;2023-07-22T10:00:21;27.90;36.76
67131;HTU21D;54051;53.464;49.532;2023-07-22T10:02:49;27.64;40.02
67131;HTU21D;54051;53.464;49.532;2023-07-22T10:05:16;27.51;39.10
67131;HTU21D;54051;53.464;49.532;2023-07-22T10:07:54;27.24;40.07
67131;HTU21D;54051;53.464;49.532;2023-07-22T10:10:25;27.00;39.11
67131;HTU21D;54051;53.464;49.532;2023-07-22T10:12:51;26.64;41.57
67131;HTU21D;54051;53.464;49.532;2023-07-22T10:15:19;26.64;40.84
67131;HTU21D;54051;53.464;49.532;2023-07-22T10:17:45;26.75;39.75
67131;HTU21D;54051;53.464;49.532;2023-07-22T10:20:12;26.70;39.90
67131;HTU21D;54051;53.464;49.532;2023-07-22T10:22:45;26.34;41.58
67131;HTU21D;54051;53.464;49.532;2023-07-22T10:25:17;26.17;43.22
67131;HTU21D;54051;53.464;49.532;2023-07-22T10:27:44;26.31;43.15
67131;HTU21D;54051;53.464;49.532;2023-07-22T10:30:15;26.10;41.42
67131;HTU21D;54051;53.464;49.532;2023-07-22T10:32:44;26.10;42.16
67131;HTU21D;54051;53.464;49.532;2023-07-22T10:35:22;26.31;40.84
67131;HTU21D;54051;53.464;49.532;2023-07-22T10:37:49;26.49;40.87
67131;HTU21D;54051;53.464;49.532;2023-07-22T10:42:59;26.09;42.20
67131;HTU21D;54051;53.464;49.532;2023-07-22T10:45:27;26.03;42.48
67131;HTU21D;54051;53.464;49.532;2023-07-22T10:48:22;26.30;42.36
67131;HTU21D;54051;53.464;49.532;2023-07-22T10:50:50;26.57;39.77
67131;HTU21D;54051;53.464;49.532;2023-07-22T10:56:20;26.71;38.16
67131;HTU21D;54051;53.464;49.532;2023-07-22T11:12:00;27.20;37.01
67131;HTU21D;54051;53.464;49.532;2023-07-22T11:14:32;26.81;37.83
67131;HTU21D;54051;53.464;49.532;2023-07-22T11:16:59;26.72;38.12
67131;HTU21D;54051;53.464;49.532;2023-07-22T11:19:26;26.70;38.19
67131;HTU21D;54051;53.464;49.532;2023-07-22T11:21:53;26.94;37.33
67131;HTU21D;54051;53.464;49.532;2023-07-22T11:24:22;26.95;37.62
67131;HTU21D;54051;53.464;49.532;2023-07-22T11:26:48;27.00;35.95
67131;HTU21D;54051;53.464;49.532;2023-07-22T11:29:15;26.86;36.97
67131;HTU21D;54051;53.464;49.532;2023-07-22T11:31:44;26.51;39.52
67131;HTU21D;54051;53.464;49.532;2023-07-22T11:34:20;26.40;38.13
67131;HTU21D;54051;53.464;49.532;2023-07-22T11:36:47;26.52;38.72
67131;HTU21D;54051;53.464;49.532;2023-07-22T11:39:15;26.79;36.46
67131;HTU21D;54051;53.464;49.532;2023-07-22T11:41:42;26.78;36.82
67131;HTU21D;54051;53.464;49.532;2023-07-22T11:44:10;26.57;37.11
67131;HTU21D;54051;53.464;49.532;2023-07-22T11:47:14;26.45;37.37
67131;HTU21D;54051;53.464;49.532;2023-07-22T11:49:41;26.72;37.69
67131;HTU21D;54051;53.464;49.532;2023-07-22T11:52:09;26.69;36.42
67131;HTU21D;54051;53.464;49.532;2023-07-22T11:54:37;26.64;38.21
67131;HTU21D;54051;53.464;49.532;2023-07-22T11:57:14;26.70;36.46
67131;HTU21D;54051;53.464;49.532;2023-07-22T12:02:22;26.66;35.76
67131;HTU21D;54051;53.464;49.532;2023-07-22T12:05:00;26.61;37.32
67131;HTU21D;54051;53.464;49.532;2023-07-22T12:07:32;26.80;36.01
67131;HTU21D;54051;53.464;49.532;2023-07-22T12:10:03;27.01;36.17
67131;HTU21D;54051;53.464;49.532;2023-07-22T12:12:39;27.26;35.27
67131;HTU21D;54051;53.464;49.532;2023-07-22T12:15:09;27.35;34.53
67131;HTU21D;54051;53.464;49.532;2023-07-22T12:17:51;27.30;34.82
67131;HTU21D;54051;53.464;49.532;2023-07-22T12:20:18;27.14;34.54
67131;HTU21D;54051;53.464;49.532;2023-07-22T12:22:44;27.02;35.97
67131;HTU21D;54051;53.464;49.532;2023-07-22T12:25:10;27.00;36.63
67131;HTU21D;54051;53.464;49.532;2023-07-22T12:27:37;26.92;35.34
67131;HTU21D;54051;53.464;49.532;2023-07-22T12:30:05;26.89;36.37
67131;HTU21D;54051;53.464;49.532;2023-07-22T12:32:33;26.95;37.14
67131;HTU21D;54051;53.464;49.532;2023-07-22T12:34:59;26.89;36.84
67131;HTU21D;54051;53.464;49.532;2023-07-22T12:37:25;26.62;35.74
67131;HTU21D;54051;53.464;49.532;2023-07-22T12:39:51;26.67;35.90
67131;HTU21D;54051;53.464;49.532;2023-07-22T12:42:17;26.78;35.80
67131;HTU21D;54051;53.464;49.532;2023-07-22T12:44:43;26.86;36.53
67131;HTU21D;54051;53.464;49.532;2023-07-22T12:47:09;26.89;38.05
67131;HTU21D;54051;53.464;49.532;2023-07-22T12:49:35;26.85;35.76
67131;HTU21D;54051;53.464;49.532;2023-07-22T12:52:01;26.78;34.46
67131;HTU21D;54051;53.464;49.532;2023-07-22T12:54:31;26.83;35.53
67131;HTU21D;54051;53.464;49.532;2023-07-22T12:56:57;26.98;35.84
67131;HTU21D;54051;53.464;49.532;2023-07-22T12:59:23;27.04;34.66
67131;HTU21D;54051;53.464;49.532;2023-07-22T13:01:49;27.01;34.88
67131;HTU21D;54051;53.464;49.532;2023-07-22T13:04:15;26.97;35.46
67131;HTU21D;54051;53.464;49.532;2023-07-22T13:06:41;26.85;36.06
67131;HTU21D;54051;53.464;49.532;2023-07-22T13:09:10;26.75;35.27
67131;HTU21D;54051;53.464;49.532;2023-07-22T13:11:36;26.67;34.63
67131;HTU21D;54051;53.464;49.532;2023-07-22T13:14:02;26.68;36.11
67131;HTU21D;54051;53.464;49.532;2023-07-22T13:16:28;26.69;36.33
67131;HTU21D;54051;53.464;49.532;2023-07-22T13:18:54;26.65;37.59
67131;HTU21D;54051;53.464;49.532;2023-07-22T13:21:20;26.53;36.36
67131;HTU21D;54051;53.464;49.532;2023-07-22T13:23:46;26.41;36.80
67131;HTU21D;54051;53.464;49.532;2023-07-22T13:26:12;26.33;37.71
67131;HTU21D;54051;53.464;49.532;2023-07-22T13:28:38;26.19;37.64
67131;HTU21D;54051;53.464;49.532;2023-07-22T13:31:04;26.20;38.29
67131;HTU21D;54051;53.464;49.532;2023-07-22T13:33:30;26.40;37.36
67131;HTU21D;54051;53.464;49.532;2023-07-22T13:35:56;26.43;36.85
67131;HTU21D;54051;53.464;49.532;2023-07-22T13:38:22;26.50;36.95
67131;HTU21D;54051;53.464;49.532;2023-07-22T13:40:48;26.42;38.27
67131;HTU21D;54051;53.464;49.532;2023-07-22T13:43:15;26.40;36.80
67131;HTU21D;54051;53.464;49.532;2023-07-22T13:45:41;26.39;36.92
67131;HTU21D;54051;53.464;49.532;2023-07-22T13:48:07;26.32;37.53
67131;HTU21D;54051;53.464;49.532;2023-07-22T13:50:33;26.26;36.92
67131;HTU21D;54051;53.464;49.532;2023-07-22T13:52:59;26.16;36.13
67131;HTU21D;54051;53.464;49.532;2023-07-22T13:55:25;26.09;37.59
67131;HTU21D;54051;53.464;49.532;2023-07-22T13:57:51;26.15;37.40
67131;HTU21D;54051;53.464;49.532;2023-07-22T14:00:17;26.20;37.51
67131;HTU21D;54051;53.464;49.532;2023-07-22T14:02:43;26.30;37.54
67131;HTU21D;54051;53.464;49.532;2023-07-22T14:05:09;26.25;38.91
67131;HTU21D;54051;53.464;49.532;2023-07-22T14:07:36;26.15;37.22
67131;HTU21D;54051;53.464;49.532;2023-07-22T14:10:05;26.08;38.40
67131;HTU21D;54051;53.464;49.532;2023-07-22T14:12:31;26.08;38.04
67131;HTU21D;54051;53.464;49.532;2023-07-22T14:14:57;26.03;37.14
67131;HTU21D;54051;53.464;49.532;2023-07-22T14:17:23;26.06;38.27
67131;HTU21D;54051;53.464;49.532;2023-07-22T14:19:49;26.07;37.66
67131;HTU21D;54051;53.464;49.532;2023-07-22T14:22:15;26.13;39.06
67131;HTU21D;54051;53.464;49.532;2023-07-22T14:24:41;26.16;38.11
67131;HTU21D;54051;53.464;49.532;2023-07-22T14:27:07;26.09;37.85
67131;HTU21D;54051;53.464;49.532;2023-07-22T14:29:33;26.08;36.39
67131;HTU21D;54051;53.464;49.532;2023-07-22T14:31:59;26.16;35.68
67131;HTU21D;54051;53.464;49.532;2023-07-22T14:34:25;26.17;38.20
67131;HTU21D;54051;53.464;49.532;2023-07-22T14:36:52;26.19;37.30
67131;HTU21D;54051;53.464;49.532;2023-07-22T14:39:18;26.17;38.81
67131;HTU21D;54051;53.464;49.532;2023-07-22T14:41:44;26.05;38.67
67131;HTU21D;54051;53.464;49.532;2023-07-22T14:44:11;26.04;38.51
67131;HTU21D;54051;53.464;49.532;2023-07-22T14:46:37;25.99;39.12
67131;HTU21D;54051;53.464;49.532;2023-07-22T14:49:04;25.93;37.58
67131;HTU21D;54051;53.464;49.532;2023-07-22T14:51:30;25.88;38.42
67131;HTU21D;54051;53.464;49.532;2023-07-22T14:53:56;25.82;39.21
67131;HTU21D;54051;53.464;49.532;2023-07-22T14:56:22;25.79;38.04
67131;HTU21D;54051;53.464;49.532;2023-07-22T14:58:48;25.80;38.36
67131;HTU21D;54051;53.464;49.532;2023-07-22T15:01:15;25.76;39.98
67131;HTU21D;54051;53.464;49.532;2023-07-22T15:03:42;25.68;38.45
67131;HTU21D;54051;53.464;49.532;2023-07-22T15:06:08;25.66;39.20
67131;HTU21D;54051;53.464;49.532;2023-07-22T15:08:34;25.60;38.88
67131;HTU21D;54051;53.464;49.532;2023-07-22T15:11:00;25.52;39.23
67131;HTU21D;54051;53.464;49.532;2023-07-22T15:13:26;25.50;39.04
67131;HTU21D;54051;53.464;49.532;2023-07-22T15:15:56;25.50;39.14
67131;HTU21D;54051;53.464;49.532;2023-07-22T15:18:22;25.47;39.95
67131;HTU21D;54051;53.464;49.532;2023-07-22T15:20:52;25.43;38.67
67131;HTU21D;54051;53.464;49.532;2023-07-22T15:23:18;25.36;40.90
67131;HTU21D;54051;53.464;49.532;2023-07-22T15:25:48;25.31;39.26